Jiggiga, Ethiopia
Current Conditions -  °F | °C
As of 2:55 PM on Friday 24 Oct 2014 (Local Time) from KQRH Reporting Station
Clear Clear  
Wind Chill: 91°   Ceiling: Unl
Heat Index: 93°   Visibility: 9mi
Dew Point: 65°   Wind: 9mph
Humidity: 42%   Direction: 90°E
Pressure: 29.87"   Gusts: 15mph
Location:  9.33°N, 42.8°E
Report Text: KQRH 241155Z AUTO 09008G13KT 9SM CLR 33/18 A2987 RMK AO2 SLP115 T03270181 10341 20257 56022
Loading
Personal Weather Stations






























Interactive Weather Map
Tropical Storm Tracking
New forecast layout! Learn more

10-Day Weather Forecast

Advertisements
Track Severe Weather on mobile